PWSweather.com
Personal Weather Stations
Station Observations
GRD01
Warsaw, LesznoPL 05-084

WarsawLesznoPL 05-084

Lat: 52.257404, Lon: 20.564847

Elevation: 298

Station Type: WH3080

http://pogoda.kampinos.waw.pl

High Low Average
Temperature 79.0°F26.1°C 57.9°F14.4°C 68.2°F20.1°C
Dew Point 60.0°F15.6°C 49.5°F9.7°C 54.2°F12.3°C
Winds 13.0 mph 20.9 kmh Calm Calm 4.0 mph WSW6.4 kmh WSW
Wind Gusts 22.1 mph35.6 kmh 0.7 mph1.1 kmh 9.0 mph14.5 kmh
Humidity 94% 37% 65%
Pressure 30.42 in1030.1 mb 30.32 in1026.8 mb -
Precipitation 0.05 in1.3 mm - -
Hour Temp Dew Point Humidity Winds Wind Gusts Pressure Precip Precip Rate Daily Precip Total
12:00 AM 61.7°F16.5°C 53.7°F12.1°C 75% 9.8 mph N15.8 kmh N 13.6 mph21.9 kmh 30.33 in1027.1 mb 0.01 in0.3 mm 0.00 in0.0 mm 0.01 in0.3 mm
12:15 AM 60.6°F15.9°C 54.4°F12.4°C 80% 6.9 mph N11.1 kmh N 13.0 mph20.9 kmh 30.33 in1027.1 mb 0.01 in0.3 mm 0.00 in0.0 mm 0.01 in0.3 mm
12:30 AM 60.3°F15.7°C 54.7°F12.6°C 82% 3.8 mph WNW6.1 kmh WNW 9.8 mph15.8 kmh 30.36 in1028.1 mb 0.04 in1.0 mm 0.12 in3.0 mm 0.04 in1.0 mm
12:45 AM 60.1°F15.6°C 55.6°F13.1°C 85% 3.1 mph S5.0 kmh S 7.6 mph12.2 kmh 30.36 in1028.1 mb 0.05 in1.3 mm 0.04 in1.0 mm 0.05 in1.3 mm
01:00 AM 59.9°F15.5°C 55.7°F13.2°C 86% 0.7 mph S1.1 kmh S 3.1 mph5.0 kmh 30.35 in1027.8 mb 0.04 in1.0 mm 0.00 in0.0 mm 0.05 in1.3 mm
01:15 AM 60.1°F15.6°C 56.5°F13.6°C 88% 2.2 mph SE3.5 kmh SE 3.8 mph6.1 kmh 30.33 in1027.1 mb 0.04 in1.0 mm 0.00 in0.0 mm 0.05 in1.3 mm
01:30 AM 59.9°F15.5°C 56.3°F13.5°C 88% 0.7 mph SE1.1 kmh SE 3.8 mph6.1 kmh 30.33 in1027.1 mb 0.01 in0.3 mm 0.00 in0.0 mm 0.05 in1.3 mm
01:45 AM 59.5°F15.3°C 56.3°F13.5°C 89% Calm Calm 1.6 mph2.6 kmh 30.34 in1027.4 mb 0.00 in0.0 mm 0.00 in0.0 mm 0.05 in1.3 mm
02:00 AM 59.0°F15.0°C 56.1°F13.4°C 90% 3.8 mph S6.1 kmh S 6.0 mph9.7 kmh 30.35 in1027.8 mb 0.00 in0.0 mm 0.00 in0.0 mm 0.05 in1.3 mm
02:15 AM 59.4°F15.2°C 56.7°F13.7°C 91% 2.2 mph S3.5 kmh S 8.3 mph13.4 kmh 30.35 in1027.8 mb 0.00 in0.0 mm 0.00 in0.0 mm 0.05 in1.3 mm
02:30 AM 59.4°F15.2°C 57.0°F13.9°C 92% 0.7 mph S1.1 kmh S 3.1 mph5.0 kmh 30.34 in1027.4 mb 0.00 in0.0 mm 0.00 in0.0 mm 0.05 in1.3 mm
02:45 AM 59.0°F15.0°C 56.7°F13.7°C 92% Calm Calm 3.1 mph5.0 kmh 30.33 in1027.1 mb 0.00 in0.0 mm 0.00 in0.0 mm 0.05 in1.3 mm
03:00 AM 58.6°F14.8°C 56.3°F13.5°C 92% 0.7 mph S1.1 kmh S 2.2 mph3.5 kmh 30.33 in1027.1 mb 0.00 in0.0 mm 0.00 in0.0 mm 0.05 in1.3 mm
03:15 AM 58.5°F14.7°C 56.1°F13.4°C 92% 1.6 mph S2.6 kmh S 2.2 mph3.5 kmh 30.32 in1026.8 mb 0.00 in0.0 mm 0.00 in0.0 mm 0.05 in1.3 mm
03:30 AM 58.3°F14.6°C 56.0°F13.3°C 92% Calm Calm 3.1 mph5.0 kmh 30.34 in1027.4 mb 0.00 in0.0 mm 0.00 in0.0 mm 0.05 in1.3 mm
03:45 AM 58.1°F14.5°C 55.8°F13.2°C 92% 2.2 mph S3.5 kmh S 3.8 mph6.1 kmh 30.34 in1027.4 mb 0.00 in0.0 mm 0.00 in0.0 mm 0.05 in1.3 mm
04:00 AM 58.1°F14.5°C 55.8°F13.2°C 92% 1.6 mph SSW2.6 kmh SSW 3.8 mph6.1 kmh 30.34 in1027.4 mb 0.00 in0.0 mm 0.00 in0.0 mm 0.05 in1.3 mm
04:15 AM 57.9°F14.4°C 55.9°F13.3°C 93% 1.6 mph S2.6 kmh S 3.8 mph6.1 kmh 30.34 in1027.4 mb 0.00 in0.0 mm 0.00 in0.0 mm 0.05 in1.3 mm
04:30 AM 57.9°F14.4°C 55.9°F13.3°C 93% 2.2 mph S3.5 kmh S 4.5 mph7.2 kmh 30.35 in1027.8 mb 0.00 in0.0 mm 0.00 in0.0 mm 0.05 in1.3 mm
04:45 AM 58.1°F14.5°C 56.1°F13.4°C 93% 5.4 mph SSW8.7 kmh SSW 7.6 mph12.2 kmh 30.35 in1027.8 mb 0.00 in0.0 mm 0.00 in0.0 mm 0.05 in1.3 mm
05:00 AM 58.3°F14.6°C 56.3°F13.5°C 93% 3.1 mph SW5.0 kmh SW 6.9 mph11.1 kmh 30.35 in1027.8 mb 0.00 in0.0 mm 0.00 in0.0 mm 0.05 in1.3 mm
05:15 AM 58.6°F14.8°C 56.6°F13.7°C 93% 1.6 mph S2.6 kmh S 6.9 mph11.1 kmh 30.35 in1027.8 mb 0.00 in0.0 mm 0.00 in0.0 mm 0.05 in1.3 mm
05:30 AM 59.0°F15.0°C 57.0°F13.9°C 93% 1.6 mph S2.6 kmh S 6.0 mph9.7 kmh 30.35 in1027.8 mb 0.00 in0.0 mm 0.00 in0.0 mm 0.05 in1.3 mm
05:45 AM 59.7°F15.4°C 58.0°F14.4°C 94% 3.8 mph SSW6.1 kmh SSW 6.0 mph9.7 kmh 30.35 in1027.8 mb 0.00 in0.0 mm 0.00 in0.0 mm 0.05 in1.3 mm
06:00 AM 60.3°F15.7°C 58.2°F14.6°C 93% 2.2 mph SW3.5 kmh SW 6.9 mph11.1 kmh 30.36 in1028.1 mb 0.00 in0.0 mm 0.00 in0.0 mm 0.05 in1.3 mm
06:15 AM 61.0°F16.1°C 58.9°F14.9°C 93% 3.1 mph S5.0 kmh S 5.4 mph8.7 kmh 30.36 in1028.1 mb 0.00 in0.0 mm 0.00 in0.0 mm 0.05 in1.3 mm
06:30 AM 61.7°F16.5°C 59.4°F15.2°C 92% 4.5 mph SSE7.2 kmh SSE 6.9 mph11.1 kmh 30.36 in1028.1 mb 0.00 in0.0 mm 0.00 in0.0 mm 0.05 in1.3 mm
06:45 AM 62.4°F16.9°C 59.8°F15.4°C 91% 3.8 mph SSW6.1 kmh SSW 9.8 mph15.8 kmh 30.37 in1028.4 mb 0.00 in0.0 mm 0.00 in0.0 mm 0.05 in1.3 mm
07:00 AM 63.0°F17.2°C 60.0°F15.6°C 90% 5.4 mph SW8.7 kmh SW 6.0 mph9.7 kmh 30.36 in1028.1 mb 0.00 in0.0 mm 0.00 in0.0 mm 0.05 in1.3 mm
07:15 AM 64.2°F17.9°C 58.9°F14.9°C 83% 5.4 mph SW8.7 kmh SW 7.6 mph12.2 kmh 30.36 in1028.1 mb 0.00 in0.0 mm 0.00 in0.0 mm 0.05 in1.3 mm
07:30 AM 65.3°F18.5°C 59.0°F15.0°C 80% 6.0 mph WSW9.7 kmh WSW 9.8 mph15.8 kmh 30.36 in1028.1 mb 0.00 in0.0 mm 0.00 in0.0 mm 0.05 in1.3 mm
07:45 AM 66.2°F19.0°C 58.4°F14.7°C 76% 4.5 mph SW7.2 kmh SW 10.7 mph17.2 kmh 30.36 in1028.1 mb 0.00 in0.0 mm 0.00 in0.0 mm 0.05 in1.3 mm
08:00 AM 67.3°F19.6°C 58.7°F14.8°C 74% 5.4 mph WSW8.7 kmh WSW 9.2 mph14.8 kmh 30.36 in1028.1 mb 0.00 in0.0 mm 0.00 in0.0 mm 0.05 in1.3 mm
08:15 AM 68.4°F20.2°C 59.0°F15.0°C 72% 2.2 mph WSW3.5 kmh WSW 9.8 mph15.8 kmh 30.37 in1028.4 mb 0.00 in0.0 mm 0.00 in0.0 mm 0.05 in1.3 mm
08:30 AM 69.3°F20.7°C 59.1°F15.1°C 70% 6.0 mph W9.7 kmh W 9.8 mph15.8 kmh 30.37 in1028.4 mb 0.00 in0.0 mm 0.00 in0.0 mm 0.05 in1.3 mm
08:45 AM 70.2°F21.2°C 58.7°F14.8°C 67% 8.3 mph WSW13.4 kmh WSW 11.4 mph18.3 kmh 30.37 in1028.4 mb 0.00 in0.0 mm 0.00 in0.0 mm 0.05 in1.3 mm
09:00 AM 71.6°F22.0°C 58.8°F14.9°C 64% 4.5 mph WSW7.2 kmh WSW 9.2 mph14.8 kmh 30.37 in1028.4 mb 0.00 in0.0 mm 0.00 in0.0 mm 0.05 in1.3 mm
09:15 AM 72.7°F22.6°C 57.0°F13.9°C 58% 2.2 mph WSW3.5 kmh WSW 11.4 mph18.3 kmh 30.37 in1028.4 mb 0.00 in0.0 mm 0.00 in0.0 mm 0.05 in1.3 mm
09:30 AM 73.6°F23.1°C 57.9°F14.4°C 58% 2.2 mph W3.5 kmh W 9.2 mph14.8 kmh 30.37 in1028.4 mb 0.00 in0.0 mm 0.00 in0.0 mm 0.05 in1.3 mm
09:45 AM 74.5°F23.6°C 56.7°F13.7°C 54% 2.2 mph WNW3.5 kmh WNW 13.6 mph21.9 kmh 30.37 in1028.4 mb 0.00 in0.0 mm 0.00 in0.0 mm 0.05 in1.3 mm
10:00 AM 74.8°F23.8°C 55.5°F13.1°C 51% 9.2 mph W14.8 kmh W 13.6 mph21.9 kmh 30.37 in1028.4 mb 0.00 in0.0 mm 0.00 in0.0 mm 0.05 in1.3 mm
10:15 AM 75.4°F24.1°C 56.0°F13.3°C 51% 4.5 mph W7.2 kmh W 13.0 mph20.9 kmh 30.37 in1028.4 mb 0.00 in0.0 mm 0.00 in0.0 mm 0.05 in1.3 mm
10:30 AM 75.7°F24.3°C 55.8°F13.2°C 50% 3.1 mph NW5.0 kmh NW 14.5 mph23.3 kmh 30.36 in1028.1 mb 0.00 in0.0 mm 0.00 in0.0 mm 0.05 in1.3 mm
10:45 AM 76.3°F24.6°C 55.7°F13.2°C 49% 9.2 mph WSW14.8 kmh WSW 14.5 mph23.3 kmh 30.37 in1028.4 mb 0.00 in0.0 mm 0.00 in0.0 mm 0.05 in1.3 mm
11:00 AM 76.8°F24.9°C 53.9°F12.2°C 45% 4.5 mph W7.2 kmh W 15.2 mph24.5 kmh 30.37 in1028.4 mb 0.00 in0.0 mm 0.00 in0.0 mm 0.05 in1.3 mm
11:15 AM 77.2°F25.1°C 54.2°F12.3°C 45% 6.9 mph WSW11.1 kmh WSW 13.0 mph20.9 kmh 30.36 in1028.1 mb 0.00 in0.0 mm 0.00 in0.0 mm 0.05 in1.3 mm
11:30 AM 76.3°F24.6°C 52.1°F11.2°C 43% 6.9 mph W11.1 kmh W 16.8 mph27.0 kmh 30.36 in1028.1 mb 0.00 in0.0 mm 0.00 in0.0 mm 0.05 in1.3 mm
11:45 AM 77.0°F25.0°C 52.1°F11.2°C 42% 9.2 mph WSW14.8 kmh WSW 17.4 mph28.0 kmh 30.35 in1027.8 mb 0.00 in0.0 mm 0.00 in0.0 mm 0.05 in1.3 mm
12:00 PM 77.4°F25.2°C 51.8°F11.0°C 41% 8.3 mph W13.4 kmh W 17.4 mph28.0 kmh 30.36 in1028.1 mb 0.00 in0.0 mm 0.00 in0.0 mm 0.05 in1.3 mm
12:15 PM 77.7°F25.4°C 51.5°F10.8°C 40% 8.3 mph SW13.4 kmh SW 14.5 mph23.3 kmh 30.35 in1027.8 mb 0.00 in0.0 mm 0.00 in0.0 mm 0.05 in1.3 mm
12:30 PM 78.6°F25.9°C 51.6°F10.9°C 39% 11.4 mph W18.3 kmh W 21.3 mph34.3 kmh 30.36 in1028.1 mb 0.00 in0.0 mm 0.00 in0.0 mm 0.05 in1.3 mm
12:45 PM 78.8°F26.0°C 50.3°F10.2°C 37% 11.4 mph SW18.3 kmh SW 22.1 mph35.6 kmh 30.36 in1028.1 mb 0.00 in0.0 mm 0.00 in0.0 mm 0.05 in1.3 mm
01:00 PM 78.8°F26.0°C 50.3°F10.2°C 37% 11.4 mph W18.3 kmh W 17.4 mph28.0 kmh 30.35 in1027.8 mb 0.00 in0.0 mm 0.00 in0.0 mm 0.05 in1.3 mm
01:15 PM 78.3°F25.7°C 49.8°F9.9°C 37% 9.8 mph WNW15.8 kmh WNW 17.4 mph28.0 kmh 30.35 in1027.8 mb 0.00 in0.0 mm 0.00 in0.0 mm 0.05 in1.3 mm
01:30 PM 79.0°F26.1°C 51.2°F10.7°C 38% 7.6 mph W12.2 kmh W 16.8 mph27.0 kmh 30.35 in1027.8 mb 0.00 in0.0 mm 0.00 in0.0 mm 0.05 in1.3 mm
01:45 PM 78.6°F25.9°C 51.6°F10.9°C 39% 13.0 mph NNW20.9 kmh NNW 15.9 mph25.6 kmh 30.35 in1027.8 mb 0.00 in0.0 mm 0.00 in0.0 mm 0.05 in1.3 mm
02:00 PM 77.9°F25.5°C 49.5°F9.7°C 37% 4.5 mph WNW7.2 kmh WNW 13.6 mph21.9 kmh 30.35 in1027.8 mb 0.00 in0.0 mm 0.00 in0.0 mm 0.05 in1.3 mm
02:15 PM 78.8°F26.0°C 51.0°F10.6°C 38% 12.1 mph WSW19.5 kmh WSW 19.0 mph30.6 kmh 30.35 in1027.8 mb 0.00 in0.0 mm 0.00 in0.0 mm 0.05 in1.3 mm
02:30 PM 78.4°F25.8°C 52.1°F11.2°C 40% 4.5 mph NW7.2 kmh NW 16.8 mph27.0 kmh 30.35 in1027.8 mb 0.00 in0.0 mm 0.00 in0.0 mm 0.05 in1.3 mm
02:45 PM 78.4°F25.8°C 52.1°F11.2°C 40% 6.0 mph WNW9.7 kmh WNW 15.9 mph25.6 kmh 30.35 in1027.8 mb 0.00 in0.0 mm 0.00 in0.0 mm 0.05 in1.3 mm
03:00 PM 78.3°F25.7°C 52.6°F11.4°C 41% 3.8 mph NW6.1 kmh NW 14.5 mph23.3 kmh 30.34 in1027.4 mb 0.00 in0.0 mm 0.00 in0.0 mm 0.05 in1.3 mm
03:15 PM 78.8°F26.0°C 51.0°F10.6°C 38% 6.9 mph NW11.1 kmh NW 18.3 mph29.5 kmh 30.35 in1027.8 mb 0.00 in0.0 mm 0.00 in0.0 mm 0.05 in1.3 mm
03:30 PM 78.4°F25.8°C 50.0°F10.0°C 37% 7.6 mph WNW12.2 kmh WNW 13.6 mph21.9 kmh 30.35 in1027.8 mb 0.00 in0.0 mm 0.00 in0.0 mm 0.05 in1.3 mm
03:45 PM 78.6°F25.9°C 50.9°F10.5°C 38% 7.6 mph NW12.2 kmh NW 15.9 mph25.6 kmh 30.35 in1027.8 mb 0.00 in0.0 mm 0.00 in0.0 mm 0.05 in1.3 mm
04:00 PM 77.9°F25.5°C 51.6°F10.9°C 40% 9.8 mph NW15.8 kmh NW 13.0 mph20.9 kmh 30.35 in1027.8 mb 0.00 in0.0 mm 0.00 in0.0 mm 0.05 in1.3 mm
04:15 PM 78.1°F25.6°C 51.8°F11.0°C 40% 3.8 mph WNW6.1 kmh WNW 11.4 mph18.3 kmh 30.35 in1027.8 mb 0.00 in0.0 mm 0.00 in0.0 mm 0.05 in1.3 mm
04:30 PM 77.5°F25.3°C 51.3°F10.7°C 40% 8.3 mph NW13.4 kmh NW 12.1 mph19.5 kmh 30.35 in1027.8 mb 0.00 in0.0 mm 0.00 in0.0 mm 0.05 in1.3 mm
04:45 PM 77.4°F25.2°C 51.1°F10.6°C 40% 9.2 mph NW14.8 kmh NW 13.6 mph21.9 kmh 30.35 in1027.8 mb 0.00 in0.0 mm 0.00 in0.0 mm 0.05 in1.3 mm
05:00 PM 77.2°F25.1°C 51.0°F10.6°C 40% 6.0 mph NW9.7 kmh NW 14.5 mph23.3 kmh 30.36 in1028.1 mb 0.00 in0.0 mm 0.00 in0.0 mm 0.05 in1.3 mm
05:15 PM 77.0°F25.0°C 51.5°F10.8°C 41% 5.4 mph NW8.7 kmh NW 14.5 mph23.3 kmh 30.35 in1027.8 mb 0.00 in0.0 mm 0.00 in0.0 mm 0.05 in1.3 mm
05:30 PM 76.6°F24.8°C 50.5°F10.3°C 40% 6.0 mph NW9.7 kmh NW 11.4 mph18.3 kmh 30.35 in1027.8 mb 0.00 in0.0 mm 0.00 in0.0 mm 0.05 in1.3 mm
05:45 PM 76.5°F24.7°C 51.0°F10.6°C 41% 7.6 mph NW12.2 kmh NW 9.8 mph15.8 kmh 30.36 in1028.1 mb 0.00 in0.0 mm 0.00 in0.0 mm 0.05 in1.3 mm
06:00 PM 75.7°F24.3°C 50.4°F10.2°C 41% 3.1 mph NNW5.0 kmh NNW 9.8 mph15.8 kmh 30.36 in1028.1 mb 0.00 in0.0 mm 0.00 in0.0 mm 0.05 in1.3 mm
06:15 PM 75.0°F23.9°C 51.0°F10.6°C 43% 3.8 mph NW6.1 kmh NW 5.4 mph8.7 kmh 30.35 in1027.8 mb 0.00 in0.0 mm 0.00 in0.0 mm 0.05 in1.3 mm
06:30 PM 73.9°F23.3°C 50.6°F10.3°C 44% 1.6 mph NW2.6 kmh NW 6.0 mph9.7 kmh 30.36 in1028.1 mb 0.00 in0.0 mm 0.00 in0.0 mm 0.05 in1.3 mm
06:45 PM 73.2°F22.9°C 50.6°F10.3°C 45% 4.5 mph NNW7.2 kmh NNW 5.4 mph8.7 kmh 30.36 in1028.1 mb 0.00 in0.0 mm 0.00 in0.0 mm 0.05 in1.3 mm
07:00 PM 72.9°F22.7°C 50.9°F10.5°C 46% 1.6 mph N2.6 kmh N 3.1 mph5.0 kmh 30.36 in1028.1 mb 0.00 in0.0 mm 0.00 in0.0 mm 0.05 in1.3 mm
07:15 PM 71.1°F21.7°C 53.6°F12.0°C 54% 0.7 mph N1.1 kmh N 2.2 mph3.5 kmh 30.38 in1028.8 mb 0.00 in0.0 mm 0.00 in0.0 mm 0.05 in1.3 mm
07:30 PM 69.6°F20.9°C 53.2°F11.8°C 56% 0.7 mph N1.1 kmh N 1.6 mph2.6 kmh 30.38 in1028.8 mb 0.00 in0.0 mm 0.00 in0.0 mm 0.05 in1.3 mm
07:45 PM 68.2°F20.1°C 54.2°F12.3°C 61% 0.7 mph N1.1 kmh N 3.1 mph5.0 kmh 30.38 in1028.8 mb 0.00 in0.0 mm 0.00 in0.0 mm 0.05 in1.3 mm
08:00 PM 66.9°F19.4°C 53.5°F11.9°C 62% 1.6 mph N2.6 kmh N 2.2 mph3.5 kmh 30.38 in1028.8 mb 0.00 in0.0 mm 0.00 in0.0 mm 0.05 in1.3 mm
08:15 PM 65.7°F18.7°C 53.1°F11.7°C 64% 0.7 mph N1.1 kmh N 1.6 mph2.6 kmh 30.39 in1029.1 mb 0.00 in0.0 mm 0.00 in0.0 mm 0.05 in1.3 mm
08:30 PM 64.8°F18.2°C 52.7°F11.5°C 65% 0.7 mph N1.1 kmh N 1.6 mph2.6 kmh 30.40 in1029.5 mb 0.00 in0.0 mm 0.00 in0.0 mm 0.05 in1.3 mm
08:45 PM 63.9°F17.7°C 52.7°F11.5°C 67% 1.6 mph N2.6 kmh N 2.2 mph3.5 kmh 30.39 in1029.1 mb 0.00 in0.0 mm 0.00 in0.0 mm 0.05 in1.3 mm
09:00 PM 63.1°F17.3°C 53.6°F12.0°C 71% Calm Calm 1.6 mph2.6 kmh 30.39 in1029.1 mb 0.00 in0.0 mm 0.00 in0.0 mm 0.05 in1.3 mm
09:15 PM 62.6°F17.0°C 53.4°F11.9°C 72% Calm Calm 0.7 mph1.1 kmh 30.40 in1029.5 mb 0.00 in0.0 mm 0.00 in0.0 mm 0.05 in1.3 mm
09:30 PM 61.9°F16.6°C 53.1°F11.7°C 73% 0.7 mph N1.1 kmh N 1.6 mph2.6 kmh 30.40 in1029.5 mb 0.00 in0.0 mm 0.00 in0.0 mm 0.05 in1.3 mm
09:45 PM 61.0°F16.1°C 52.6°F11.4°C 74% 1.6 mph N2.6 kmh N 2.2 mph3.5 kmh 30.41 in1029.8 mb 0.00 in0.0 mm 0.00 in0.0 mm 0.05 in1.3 mm
10:00 PM 60.4°F15.8°C 52.1°F11.2°C 74% 0.7 mph N1.1 kmh N 2.2 mph3.5 kmh 30.41 in1029.8 mb 0.00 in0.0 mm 0.00 in0.0 mm 0.05 in1.3 mm
10:15 PM 60.1°F15.6°C 51.8°F11.0°C 74% 0.7 mph NE1.1 kmh NE 1.6 mph2.6 kmh 30.41 in1029.8 mb 0.00 in0.0 mm 0.00 in0.0 mm 0.05 in1.3 mm
10:30 PM 59.9°F15.5°C 52.0°F11.1°C 75% 2.2 mph NE3.5 kmh NE 3.8 mph6.1 kmh 30.42 in1030.1 mb 0.00 in0.0 mm 0.00 in0.0 mm 0.05 in1.3 mm
10:35 PM 59.9°F15.5°C 52.0°F11.1°C 75% 1.6 mph NE2.6 kmh NE 2.2 mph3.5 kmh 29.97 in1014.9 mb 0.00 in0.0 mm 0.00 in0.0 mm 0.05 in1.3 mm
10:45 PM 60.3°F15.7°C 51.9°F11.1°C 74% 1.6 mph NE2.6 kmh NE 3.8 mph6.1 kmh 30.41 in1029.8 mb 0.00 in0.0 mm 0.00 in0.0 mm 0.05 in1.3 mm
11:00 PM 60.3°F15.7°C 51.6°F10.9°C 73% 2.2 mph NE3.5 kmh NE 4.5 mph7.2 kmh 30.41 in1029.8 mb 0.00 in0.0 mm 0.00 in0.0 mm 0.05 in1.3 mm
11:05 PM 60.4°F15.8°C 51.7°F10.9°C 73% 2.2 mph NE3.5 kmh NE 3.8 mph6.1 kmh 29.97 in1014.9 mb 0.00 in0.0 mm 0.00 in0.0 mm 0.05 in1.3 mm
11:15 PM 61.2°F16.2°C 52.1°F11.2°C 72% 3.1 mph NE5.0 kmh NE 3.8 mph6.1 kmh 30.42 in1030.1 mb 0.00 in0.0 mm 0.00 in0.0 mm 0.05 in1.3 mm
11:30 PM 61.3°F16.3°C 52.2°F11.2°C 72% 0.7 mph ENE1.1 kmh ENE 4.5 mph7.2 kmh 30.42 in1030.1 mb 0.00 in0.0 mm 0.00 in0.0 mm 0.05 in1.3 mm
11:35 PM 61.3°F16.3°C 52.2°F11.2°C 72% 1.6 mph E2.6 kmh E 2.2 mph3.5 kmh 29.97 in1014.9 mb 0.00 in0.0 mm 0.00 in0.0 mm 0.05 in1.3 mm
11:45 PM 61.7°F16.5°C 52.6°F11.4°C 72% 3.1 mph NE5.0 kmh NE 4.5 mph7.2 kmh 30.42 in1030.1 mb 0.00 in0.0 mm 0.00 in0.0 mm 0.05 in1.3 mm